sensor_id;sensor_type;location;lat;lon;timestamp;temperature;humidity
3312;DHT22;1668;49.648;8.570;2023-02-26T00:01:25;0.80;99.90
3312;DHT22;1668;49.648;8.570;2023-02-26T00:03:54;0.80;99.90
3312;DHT22;1668;49.648;8.570;2023-02-26T00:06:22;0.80;99.90
3312;DHT22;1668;49.648;8.570;2023-02-26T00:08:49;0.80;99.90
3312;DHT22;1668;49.648;8.570;2023-02-26T00:11:18;0.80;99.90
3312;DHT22;1668;49.648;8.570;2023-02-26T00:13:45;0.80;99.90
3312;DHT22;1668;49.648;8.570;2023-02-26T00:16:17;0.80;99.90
3312;DHT22;1668;49.648;8.570;2023-02-26T00:18:48;0.80;99.90
3312;DHT22;1668;49.648;8.570;2023-02-26T00:21:16;0.80;99.90
3312;DHT22;1668;49.648;8.570;2023-02-26T00:23:43;0.70;99.90
3312;DHT22;1668;49.648;8.570;2023-02-26T00:26:10;0.70;99.90
3312;DHT22;1668;49.648;8.570;2023-02-26T00:28:39;0.60;99.90
3312;DHT22;1668;49.648;8.570;2023-02-26T00:31:07;0.60;99.90
3312;DHT22;1668;49.648;8.570;2023-02-26T00:33:34;0.60;99.90
3312;DHT22;1668;49.648;8.570;2023-02-26T00:36:12;0.60;99.90
3312;DHT22;1668;49.648;8.570;2023-02-26T00:38:42;0.60;99.90
3312;DHT22;1668;49.648;8.570;2023-02-26T00:41:10;0.50;99.90
3312;DHT22;1668;49.648;8.570;2023-02-26T00:43:41;0.60;99.90
3312;DHT22;1668;49.648;8.570;2023-02-26T00:46:16;0.60;99.90
3312;DHT22;1668;49.648;8.570;2023-02-26T00:48:52;0.60;99.90
3312;DHT22;1668;49.648;8.570;2023-02-26T00:51:28;0.60;99.90
3312;DHT22;1668;49.648;8.570;2023-02-26T00:54:01;0.50;99.90
3312;DHT22;1668;49.648;8.570;2023-02-26T00:56:29;0.50;99.90
3312;DHT22;1668;49.648;8.570;2023-02-26T00:58:57;0.50;99.90
3312;DHT22;1668;49.648;8.570;2023-02-26T01:01:24;0.50;99.90
3312;DHT22;1668;49.648;8.570;2023-02-26T01:03:53;0.50;99.90
3312;DHT22;1668;49.648;8.570;2023-02-26T01:06:21;0.40;99.90
3312;DHT22;1668;49.648;8.570;2023-02-26T01:08:55;0.40;99.90
3312;DHT22;1668;49.648;8.570;2023-02-26T01:11:23;0.40;99.90
3312;DHT22;1668;49.648;8.570;2023-02-26T01:13:51;0.40;99.90
3312;DHT22;1668;49.648;8.570;2023-02-26T01:16:23;0.40;99.90
3312;DHT22;1668;49.648;8.570;2023-02-26T01:18:55;0.40;99.90
3312;DHT22;1668;49.648;8.570;2023-02-26T01:21:29;0.40;99.90
3312;DHT22;1668;49.648;8.570;2023-02-26T01:23:58;0.40;99.90
3312;DHT22;1668;49.648;8.570;2023-02-26T01:26:28;0.40;99.90
3312;DHT22;1668;49.648;8.570;2023-02-26T01:28:55;0.30;99.90
3312;DHT22;1668;49.648;8.570;2023-02-26T01:31:36;0.40;99.90
3312;DHT22;1668;49.648;8.570;2023-02-26T01:34:09;0.40;99.90
3312;DHT22;1668;49.648;8.570;2023-02-26T01:36:42;0.40;99.90
3312;DHT22;1668;49.648;8.570;2023-02-26T01:39:17;0.40;99.90
3312;DHT22;1668;49.648;8.570;2023-02-26T01:41:48;0.40;99.90
3312;DHT22;1668;49.648;8.570;2023-02-26T01:44:22;0.40;99.90
3312;DHT22;1668;49.648;8.570;2023-02-26T01:47:07;0.40;99.90
3312;DHT22;1668;49.648;8.570;2023-02-26T01:49:36;0.40;99.90
3312;DHT22;1668;49.648;8.570;2023-02-26T01:52:04;0.40;99.90
3312;DHT22;1668;49.648;8.570;2023-02-26T01:54:33;0.40;99.90
3312;DHT22;1668;49.648;8.570;2023-02-26T01:57:03;0.40;1.00
3312;DHT22;1668;49.648;8.570;2023-02-26T01:59:32;0.30;1.00
3312;DHT22;1668;49.648;8.570;2023-02-26T02:02:04;0.30;1.00
3312;DHT22;1668;49.648;8.570;2023-02-26T02:04:32;0.30;1.00
3312;DHT22;1668;49.648;8.570;2023-02-26T02:06:59;0.30;1.00
3312;DHT22;1668;49.648;8.570;2023-02-26T02:09:26;0.30;1.00
3312;DHT22;1668;49.648;8.570;2023-02-26T02:12:07;0.30;1.00
3312;DHT22;1668;49.648;8.570;2023-02-26T02:14:45;0.30;1.00
3312;DHT22;1668;49.648;8.570;2023-02-26T02:17:20;0.40;1.00
3312;DHT22;1668;49.648;8.570;2023-02-26T02:20:21;0.40;1.00
3312;DHT22;1668;49.648;8.570;2023-02-26T02:23:02;0.30;1.00
3312;DHT22;1668;49.648;8.570;2023-02-26T02:26:10;0.30;99.90
3312;DHT22;1668;49.648;8.570;2023-02-26T02:28:48;0.30;1.00
3312;DHT22;1668;49.648;8.570;2023-02-26T02:31:21;0.30;99.90
3312;DHT22;1668;49.648;8.570;2023-02-26T02:33:54;0.30;1.00
3312;DHT22;1668;49.648;8.570;2023-02-26T02:36:30;0.20;99.90
3312;DHT22;1668;49.648;8.570;2023-02-26T02:39:00;0.20;99.90
3312;DHT22;1668;49.648;8.570;2023-02-26T02:41:31;0.20;99.90
3312;DHT22;1668;49.648;8.570;2023-02-26T02:44:02;0.20;99.90
3312;DHT22;1668;49.648;8.570;2023-02-26T02:46:33;0.20;99.90
3312;DHT22;1668;49.648;8.570;2023-02-26T02:49:04;0.10;99.90
3312;DHT22;1668;49.648;8.570;2023-02-26T02:51:36;0.10;99.90
3312;DHT22;1668;49.648;8.570;2023-02-26T02:54:07;0.10;99.90
3312;DHT22;1668;49.648;8.570;2023-02-26T02:56:41;0.10;99.90
3312;DHT22;1668;49.648;8.570;2023-02-26T02:59:14;0.00;99.90
3312;DHT22;1668;49.648;8.570;2023-02-26T03:01:44;0.00;99.90
3312;DHT22;1668;49.648;8.570;2023-02-26T03:04:13;0.00;1.00
3312;DHT22;1668;49.648;8.570;2023-02-26T03:06:41;0.00;1.00
3312;DHT22;1668;49.648;8.570;2023-02-26T03:09:10;0.00;1.00
3312;DHT22;1668;49.648;8.570;2023-02-26T03:11:37;0.00;99.90
3312;DHT22;1668;49.648;8.570;2023-02-26T03:14:04;0.00;99.90
3312;DHT22;1668;49.648;8.570;2023-02-26T03:17:02;-0.10;99.90
3312;DHT22;1668;49.648;8.570;2023-02-26T03:19:37;-0.10;99.90
3312;DHT22;1668;49.648;8.570;2023-02-26T03:22:11;-0.10;1.00
3312;DHT22;1668;49.648;8.570;2023-02-26T03:24:47;-0.20;1.00
3312;DHT22;1668;49.648;8.570;2023-02-26T03:27:20;-0.20;1.00
3312;DHT22;1668;49.648;8.570;2023-02-26T03:29:51;-0.30;1.00
3312;DHT22;1668;49.648;8.570;2023-02-26T03:32:24;-0.30;1.00
3312;DHT22;1668;49.648;8.570;2023-02-26T03:34:59;-0.30;1.00
3312;DHT22;1668;49.648;8.570;2023-02-26T03:37:31;-0.30;1.00
3312;DHT22;1668;49.648;8.570;2023-02-26T03:40:04;-0.30;1.00
3312;DHT22;1668;49.648;8.570;2023-02-26T03:42:36;-0.40;1.00
3312;DHT22;1668;49.648;8.570;2023-02-26T03:45:09;-0.40;1.00
3312;DHT22;1668;49.648;8.570;2023-02-26T03:47:41;-0.40;1.00
3312;DHT22;1668;49.648;8.570;2023-02-26T03:50:14;-0.40;1.00
3312;DHT22;1668;49.648;8.570;2023-02-26T03:52:45;-0.40;1.00
3312;DHT22;1668;49.648;8.570;2023-02-26T03:55:16;-0.50;1.00
3312;DHT22;1668;49.648;8.570;2023-02-26T03:57:43;-0.50;1.00
3312;DHT22;1668;49.648;8.570;2023-02-26T04:00:12;-0.50;1.00
3312;DHT22;1668;49.648;8.570;2023-02-26T04:02:44;-0.60;1.00
3312;DHT22;1668;49.648;8.570;2023-02-26T04:05:15;-0.60;1.00
3312;DHT22;1668;49.648;8.570;2023-02-26T04:07:44;-0.60;50.50
3312;DHT22;1668;49.648;8.570;2023-02-26T04:10:14;-0.60;99.90
3312;DHT22;1668;49.648;8.570;2023-02-26T04:12:42;-0.60;99.90
3312;DHT22;1668;49.648;8.570;2023-02-26T04:15:09;-0.60;99.90
3312;DHT22;1668;49.648;8.570;2023-02-26T04:17:36;-0.60;99.90
3312;DHT22;1668;49.648;8.570;2023-02-26T04:20:06;-0.60;99.90
3312;DHT22;1668;49.648;8.570;2023-02-26T04:22:34;-0.60;99.90
3312;DHT22;1668;49.648;8.570;2023-02-26T04:25:01;-0.70;99.90
3312;DHT22;1668;49.648;8.570;2023-02-26T04:27:28;-0.70;99.90
3312;DHT22;1668;49.648;8.570;2023-02-26T04:29:54;-0.70;99.90
3312;DHT22;1668;49.648;8.570;2023-02-26T04:32:21;-0.70;99.90
3312;DHT22;1668;49.648;8.570;2023-02-26T04:34:48;-0.70;1.00
3312;DHT22;1668;49.648;8.570;2023-02-26T04:40:38;-0.70;1.00
3312;DHT22;1668;49.648;8.570;2023-02-26T04:43:05;-0.70;1.00
3312;DHT22;1668;49.648;8.570;2023-02-26T04:45:32;-0.70;1.00
3312;DHT22;1668;49.648;8.570;2023-02-26T04:47:59;-0.70;1.00
3312;DHT22;1668;49.648;8.570;2023-02-26T04:50:26;-0.80;1.00
3312;DHT22;1668;49.648;8.570;2023-02-26T04:52:52;-0.80;1.00
3312;DHT22;1668;49.648;8.570;2023-02-26T04:55:19;-0.80;1.00
3312;DHT22;1668;49.648;8.570;2023-02-26T04:57:47;-0.80;1.00
3312;DHT22;1668;49.648;8.570;2023-02-26T05:00:15;-0.80;1.00
3312;DHT22;1668;49.648;8.570;2023-02-26T05:02:42;-0.80;94.00
3312;DHT22;1668;49.648;8.570;2023-02-26T05:05:09;-0.80;99.90
3312;DHT22;1668;49.648;8.570;2023-02-26T05:07:36;-0.90;99.90
3312;DHT22;1668;49.648;8.570;2023-02-26T05:10:04;-0.90;99.90
3312;DHT22;1668;49.648;8.570;2023-02-26T05:12:31;-0.90;99.90
3312;DHT22;1668;49.648;8.570;2023-02-26T05:14:59;-0.90;99.90
3312;DHT22;1668;49.648;8.570;2023-02-26T05:17:26;-0.90;99.90
3312;DHT22;1668;49.648;8.570;2023-02-26T05:19:53;-1.00;1.00
3312;DHT22;1668;49.648;8.570;2023-02-26T05:22:20;-1.00;1.00
3312;DHT22;1668;49.648;8.570;2023-02-26T05:24:47;-1.00;1.00
3312;DHT22;1668;49.648;8.570;2023-02-26T05:27:14;-1.00;1.00
3312;DHT22;1668;49.648;8.570;2023-02-26T05:29:41;-1.00;1.00
3312;DHT22;1668;49.648;8.570;2023-02-26T05:32:10;-1.00;1.00
3312;DHT22;1668;49.648;8.570;2023-02-26T05:34:37;-1.00;1.00
3312;DHT22;1668;49.648;8.570;2023-02-26T05:37:04;-1.00;1.00
3312;DHT22;1668;49.648;8.570;2023-02-26T05:39:31;-1.00;1.00
3312;DHT22;1668;49.648;8.570;2023-02-26T05:41:58;-1.00;1.00
3312;DHT22;1668;49.648;8.570;2023-02-26T05:44:25;-1.00;1.00
3312;DHT22;1668;49.648;8.570;2023-02-26T05:46:52;-1.00;1.00
3312;DHT22;1668;49.648;8.570;2023-02-26T05:49:20;-1.00;1.00
3312;DHT22;1668;49.648;8.570;2023-02-26T05:51:47;-1.00;1.00
3312;DHT22;1668;49.648;8.570;2023-02-26T05:54:14;-1.00;1.00
3312;DHT22;1668;49.648;8.570;2023-02-26T05:56:40;-1.00;1.00
3312;DHT22;1668;49.648;8.570;2023-02-26T05:59:07;-1.10;20.80
3312;DHT22;1668;49.648;8.570;2023-02-26T06:01:35;-1.10;99.90
3312;DHT22;1668;49.648;8.570;2023-02-26T06:04:02;-1.10;99.90
3312;DHT22;1668;49.648;8.570;2023-02-26T06:06:31;-1.10;99.90
3312;DHT22;1668;49.648;8.570;2023-02-26T06:08:58;-1.10;99.90
3312;DHT22;1668;49.648;8.570;2023-02-26T06:11:25;-1.10;99.90
3312;DHT22;1668;49.648;8.570;2023-02-26T06:13:52;-1.10;99.90
3312;DHT22;1668;49.648;8.570;2023-02-26T06:16:19;-1.10;99.90
3312;DHT22;1668;49.648;8.570;2023-02-26T06:18:46;-1.10;1.00
3312;DHT22;1668;49.648;8.570;2023-02-26T06:21:14;-1.10;1.00
3312;DHT22;1668;49.648;8.570;2023-02-26T06:23:43;-1.10;1.00
3312;DHT22;1668;49.648;8.570;2023-02-26T06:26:10;-1.10;1.00
3312;DHT22;1668;49.648;8.570;2023-02-26T06:28:37;-1.10;1.00
3312;DHT22;1668;49.648;8.570;2023-02-26T06:31:03;-1.10;1.00
3312;DHT22;1668;49.648;8.570;2023-02-26T06:33:30;-1.10;7.40
3312;DHT22;1668;49.648;8.570;2023-02-26T06:35:57;-1.10;99.90
3312;DHT22;1668;49.648;8.570;2023-02-26T06:38:25;-1.10;99.90
3312;DHT22;1668;49.648;8.570;2023-02-26T06:40:53;-1.10;1.00
3312;DHT22;1668;49.648;8.570;2023-02-26T06:43:20;-1.10;1.00
3312;DHT22;1668;49.648;8.570;2023-02-26T06:45:47;-1.10;1.00
3312;DHT22;1668;49.648;8.570;2023-02-26T06:48:14;-1.10;1.00
3312;DHT22;1668;49.648;8.570;2023-02-26T06:50:40;-1.10;1.00
3312;DHT22;1668;49.648;8.570;2023-02-26T06:53:09;-1.10;1.00
3312;DHT22;1668;49.648;8.570;2023-02-26T06:55:42;-1.10;1.00
3312;DHT22;1668;49.648;8.570;2023-02-26T06:58:12;-1.10;1.00
3312;DHT22;1668;49.648;8.570;2023-02-26T07:00:39;-1.10;1.00
3312;DHT22;1668;49.648;8.570;2023-02-26T07:03:06;-1.10;1.00
3312;DHT22;1668;49.648;8.570;2023-02-26T07:05:35;-1.10;1.00
3312;DHT22;1668;49.648;8.570;2023-02-26T07:08:01;-1.10;1.00
3312;DHT22;1668;49.648;8.570;2023-02-26T07:10:31;-1.10;1.00
3312;DHT22;1668;49.648;8.570;2023-02-26T07:12:58;-1.00;1.00
3312;DHT22;1668;49.648;8.570;2023-02-26T07:15:26;-1.00;1.00
3312;DHT22;1668;49.648;8.570;2023-02-26T07:17:53;-1.00;91.50
3312;DHT22;1668;49.648;8.570;2023-02-26T07:20:20;-0.90;1.00
3312;DHT22;1668;49.648;8.570;2023-02-26T07:22:48;-0.90;1.00
3312;DHT22;1668;49.648;8.570;2023-02-26T07:25:14;-0.80;1.00
3312;DHT22;1668;49.648;8.570;2023-02-26T07:27:41;-0.80;99.90
3312;DHT22;1668;49.648;8.570;2023-02-26T07:30:09;-0.80;99.90
3312;DHT22;1668;49.648;8.570;2023-02-26T07:32:38;-0.70;99.90
3312;DHT22;1668;49.648;8.570;2023-02-26T07:35:05;-0.70;99.90
3312;DHT22;1668;49.648;8.570;2023-02-26T07:44:17;-0.50;99.90
3312;DHT22;1668;49.648;8.570;2023-02-26T07:46:44;-0.50;99.90
3312;DHT22;1668;49.648;8.570;2023-02-26T07:49:12;-0.40;1.00
3312;DHT22;1668;49.648;8.570;2023-02-26T07:51:39;-0.40;1.00
3312;DHT22;1668;49.648;8.570;2023-02-26T07:54:10;-0.30;1.00
3312;DHT22;1668;49.648;8.570;2023-02-26T07:56:38;-0.30;1.00
3312;DHT22;1668;49.648;8.570;2023-02-26T07:59:06;-0.20;35.70
3312;DHT22;1668;49.648;8.570;2023-02-26T08:01:33;-0.20;1.00
3312;DHT22;1668;49.648;8.570;2023-02-26T08:04:00;-0.20;1.00
3312;DHT22;1668;49.648;8.570;2023-02-26T08:06:28;-0.20;99.90
3312;DHT22;1668;49.648;8.570;2023-02-26T08:08:55;-0.10;99.90
3312;DHT22;1668;49.648;8.570;2023-02-26T08:11:22;-0.10;99.90
3312;DHT22;1668;49.648;8.570;2023-02-26T08:13:49;0.00;99.90
3312;DHT22;1668;49.648;8.570;2023-02-26T08:16:16;0.00;94.70
3312;DHT22;1668;49.648;8.570;2023-02-26T08:18:42;0.10;99.90
3312;DHT22;1668;49.648;8.570;2023-02-26T08:21:09;0.10;99.90
3312;DHT22;1668;49.648;8.570;2023-02-26T08:23:38;0.20;1.00
3312;DHT22;1668;49.648;8.570;2023-02-26T08:26:09;0.30;1.00
3312;DHT22;1668;49.648;8.570;2023-02-26T08:28:37;0.30;1.00
3312;DHT22;1668;49.648;8.570;2023-02-26T08:31:04;0.50;1.00
3312;DHT22;1668;49.648;8.570;2023-02-26T08:33:32;0.50;1.00
3312;DHT22;1668;49.648;8.570;2023-02-26T08:35:59;0.60;99.90
3312;DHT22;1668;49.648;8.570;2023-02-26T08:38:26;0.70;1.00
3312;DHT22;1668;49.648;8.570;2023-02-26T08:40:54;0.80;1.00
3312;DHT22;1668;49.648;8.570;2023-02-26T08:43:22;0.80;1.00
3312;DHT22;1668;49.648;8.570;2023-02-26T08:45:51;1.00;1.00
3312;DHT22;1668;49.648;8.570;2023-02-26T08:48:19;1.10;1.00
3312;DHT22;1668;49.648;8.570;2023-02-26T08:50:46;1.20;99.90
3312;DHT22;1668;49.648;8.570;2023-02-26T08:53:12;1.20;1.00
3312;DHT22;1668;49.648;8.570;2023-02-26T08:55:39;1.30;99.90
3312;DHT22;1668;49.648;8.570;2023-02-26T08:58:08;1.30;99.90
3312;DHT22;1668;49.648;8.570;2023-02-26T09:00:34;1.40;1.00
3312;DHT22;1668;49.648;8.570;2023-02-26T09:03:02;1.50;99.90
3312;DHT22;1668;49.648;8.570;2023-02-26T09:05:28;1.60;1.00
3312;DHT22;1668;49.648;8.570;2023-02-26T09:07:55;1.70;99.90
3312;DHT22;1668;49.648;8.570;2023-02-26T09:10:22;1.90;99.90
3312;DHT22;1668;49.648;8.570;2023-02-26T09:12:49;1.90;99.90
3312;DHT22;1668;49.648;8.570;2023-02-26T09:15:17;1.90;99.90
3312;DHT22;1668;49.648;8.570;2023-02-26T09:17:45;1.90;99.90
3312;DHT22;1668;49.648;8.570;2023-02-26T09:20:15;2.00;99.90
3312;DHT22;1668;49.648;8.570;2023-02-26T09:22:42;2.20;99.90
3312;DHT22;1668;49.648;8.570;2023-02-26T09:25:10;2.30;99.90
3312;DHT22;1668;49.648;8.570;2023-02-26T09:27:37;2.30;98.20
3312;DHT22;1668;49.648;8.570;2023-02-26T09:30:06;2.20;68.30
3312;DHT22;1668;49.648;8.570;2023-02-26T09:32:34;2.20;72.80
3312;DHT22;1668;49.648;8.570;2023-02-26T09:35:02;2.30;59.00
3312;DHT22;1668;49.648;8.570;2023-02-26T09:37:30;2.40;80.00
3312;DHT22;1668;49.648;8.570;2023-02-26T09:39:56;2.50;27.70
3312;DHT22;1668;49.648;8.570;2023-02-26T09:42:43;2.60;37.70
3312;DHT22;1668;49.648;8.570;2023-02-26T09:45:23;2.60;1.00
3312;DHT22;1668;49.648;8.570;2023-02-26T09:47:53;2.60;1.00
3312;DHT22;1668;49.648;8.570;2023-02-26T09:50:24;2.70;1.00
3312;DHT22;1668;49.648;8.570;2023-02-26T09:52:59;2.80;1.00
3312;DHT22;1668;49.648;8.570;2023-02-26T09:55:30;2.90;1.00
3312;DHT22;1668;49.648;8.570;2023-02-26T09:58:00;2.90;1.00
3312;DHT22;1668;49.648;8.570;2023-02-26T10:00:33;3.00;1.00
3312;DHT22;1668;49.648;8.570;2023-02-26T10:03:15;3.00;1.00
3312;DHT22;1668;49.648;8.570;2023-02-26T10:05:52;3.10;1.00
3312;DHT22;1668;49.648;8.570;2023-02-26T10:08:27;3.20;1.00
3312;DHT22;1668;49.648;8.570;2023-02-26T10:11:02;3.20;1.00
3312;DHT22;1668;49.648;8.570;2023-02-26T10:13:36;3.30;1.00
3312;DHT22;1668;49.648;8.570;2023-02-26T10:16:06;3.50;1.00
3312;DHT22;1668;49.648;8.570;2023-02-26T10:22:01;3.50;1.00
3312;DHT22;1668;49.648;8.570;2023-02-26T10:24:37;3.40;1.00
3312;DHT22;1668;49.648;8.570;2023-02-26T10:27:11;3.50;1.00
3312;DHT22;1668;49.648;8.570;2023-02-26T10:29:46;3.60;1.00
3312;DHT22;1668;49.648;8.570;2023-02-26T10:32:22;3.60;1.00
3312;DHT22;1668;49.648;8.570;2023-02-26T10:34:53;3.50;1.00
3312;DHT22;1668;49.648;8.570;2023-02-26T10:37:32;3.40;1.00
3312;DHT22;1668;49.648;8.570;2023-02-26T10:40:03;3.30;1.00
3312;DHT22;1668;49.648;8.570;2023-02-26T10:42:38;3.30;1.00
3312;DHT22;1668;49.648;8.570;2023-02-26T10:45:22;3.40;1.00
3312;DHT22;1668;49.648;8.570;2023-02-26T10:47:57;3.50;1.00
3312;DHT22;1668;49.648;8.570;2023-02-26T10:53:52;3.50;1.00
3312;DHT22;1668;49.648;8.570;2023-02-26T10:56:22;3.40;1.00
3312;DHT22;1668;49.648;8.570;2023-02-26T10:58:51;3.40;1.00
3312;DHT22;1668;49.648;8.570;2023-02-26T11:01:21;3.50;1.00
3312;DHT22;1668;49.648;8.570;2023-02-26T11:03:54;3.60;1.00
3312;DHT22;1668;49.648;8.570;2023-02-26T11:06:23;3.60;1.00
3312;DHT22;1668;49.648;8.570;2023-02-26T11:08:56;3.70;1.00
3312;DHT22;1668;49.648;8.570;2023-02-26T11:11:42;3.70;1.00
3312;DHT22;1668;49.648;8.570;2023-02-26T11:14:11;4.00;1.00
3312;DHT22;1668;49.648;8.570;2023-02-26T11:16:46;4.10;1.00
3312;DHT22;1668;49.648;8.570;2023-02-26T11:19:15;4.40;1.00
3312;DHT22;1668;49.648;8.570;2023-02-26T11:21:45;4.60;1.00
3312;DHT22;1668;49.648;8.570;2023-02-26T11:24:18;4.70;1.00
3312;DHT22;1668;49.648;8.570;2023-02-26T11:26:48;4.90;1.00
3312;DHT22;1668;49.648;8.570;2023-02-26T11:29:18;5.00;1.00
3312;DHT22;1668;49.648;8.570;2023-02-26T11:31:47;4.80;1.00
3312;DHT22;1668;49.648;8.570;2023-02-26T11:34:21;4.80;1.00
3312;DHT22;1668;49.648;8.570;2023-02-26T11:36:49;4.90;1.00
3312;DHT22;1668;49.648;8.570;2023-02-26T11:39:21;5.00;1.00
3312;DHT22;1668;49.648;8.570;2023-02-26T11:41:51;4.90;1.00
3312;DHT22;1668;49.648;8.570;2023-02-26T11:44:20;4.90;1.00
3312;DHT22;1668;49.648;8.570;2023-02-26T11:46:52;5.20;1.00
3312;DHT22;1668;49.648;8.570;2023-02-26T11:49:22;5.20;1.00
3312;DHT22;1668;49.648;8.570;2023-02-26T11:52:03;5.40;1.00
3312;DHT22;1668;49.648;8.570;2023-02-26T11:54:34;5.60;1.00
3312;DHT22;1668;49.648;8.570;2023-02-26T11:57:06;5.60;1.00
3312;DHT22;1668;49.648;8.570;2023-02-26T11:59:33;5.50;1.00
3312;DHT22;1668;49.648;8.570;2023-02-26T12:02:02;5.60;1.00
3312;DHT22;1668;49.648;8.570;2023-02-26T12:04:38;5.50;1.00
3312;DHT22;1668;49.648;8.570;2023-02-26T12:07:10;5.00;1.00
3312;DHT22;1668;49.648;8.570;2023-02-26T12:09:40;4.80;1.00
3312;DHT22;1668;49.648;8.570;2023-02-26T12:12:21;4.90;1.00
3312;DHT22;1668;49.648;8.570;2023-02-26T12:15:02;4.90;1.00
3312;DHT22;1668;49.648;8.570;2023-02-26T12:17:53;4.90;1.00
3312;DHT22;1668;49.648;8.570;2023-02-26T12:20:27;4.90;1.00
3312;DHT22;1668;49.648;8.570;2023-02-26T12:23:12;4.70;1.00
3312;DHT22;1668;49.648;8.570;2023-02-26T12:28:40;4.70;1.00
3312;DHT22;1668;49.648;8.570;2023-02-26T12:31:31;4.80;1.00
3312;DHT22;1668;49.648;8.570;2023-02-26T12:34:16;4.90;1.00
3312;DHT22;1668;49.648;8.570;2023-02-26T12:36:59;4.90;1.00
3312;DHT22;1668;49.648;8.570;2023-02-26T12:39:39;5.10;1.00
3312;DHT22;1668;49.648;8.570;2023-02-26T12:42:19;5.10;1.00
3312;DHT22;1668;49.648;8.570;2023-02-26T12:45:07;5.20;1.00
3312;DHT22;1668;49.648;8.570;2023-02-26T12:47:46;5.10;1.00
3312;DHT22;1668;49.648;8.570;2023-02-26T12:50:31;5.10;1.00
3312;DHT22;1668;49.648;8.570;2023-02-26T12:56:29;5.40;1.00
3312;DHT22;1668;49.648;8.570;2023-02-26T12:59:16;5.30;1.00
3312;DHT22;1668;49.648;8.570;2023-02-26T13:01:59;5.40;1.00
3312;DHT22;1668;49.648;8.570;2023-02-26T13:04:41;5.30;1.00
3312;DHT22;1668;49.648;8.570;2023-02-26T13:07:25;5.20;1.00
3312;DHT22;1668;49.648;8.570;2023-02-26T13:10:00;5.20;1.00
3312;DHT22;1668;49.648;8.570;2023-02-26T13:12:40;5.10;1.00
3312;DHT22;1668;49.648;8.570;2023-02-26T13:15:28;5.00;1.00
3312;DHT22;1668;49.648;8.570;2023-02-26T13:18:03;5.00;1.00
3312;DHT22;1668;49.648;8.570;2023-02-26T13:20:34;5.00;1.00
3312;DHT22;1668;49.648;8.570;2023-02-26T13:23:08;5.00;1.00
3312;DHT22;1668;49.648;8.570;2023-02-26T13:25:38;4.80;1.00
3312;DHT22;1668;49.648;8.570;2023-02-26T13:28:15;4.80;1.00
3312;DHT22;1668;49.648;8.570;2023-02-26T13:30:50;4.80;1.00
3312;DHT22;1668;49.648;8.570;2023-02-26T13:33:22;4.80;1.00
3312;DHT22;1668;49.648;8.570;2023-02-26T13:35:52;4.90;1.00
3312;DHT22;1668;49.648;8.570;2023-02-26T13:38:25;4.80;1.00
3312;DHT22;1668;49.648;8.570;2023-02-26T13:41:01;4.80;1.00
3312;DHT22;1668;49.648;8.570;2023-02-26T13:46:31;4.50;1.00
3312;DHT22;1668;49.648;8.570;2023-02-26T13:49:05;4.50;1.00
3312;DHT22;1668;49.648;8.570;2023-02-26T13:51:37;4.60;1.00
3312;DHT22;1668;49.648;8.570;2023-02-26T13:54:08;4.50;1.00
3312;DHT22;1668;49.648;8.570;2023-02-26T13:57:04;4.60;1.00
3312;DHT22;1668;49.648;8.570;2023-02-26T13:59:44;4.60;1.00
3312;DHT22;1668;49.648;8.570;2023-02-26T14:02:52;4.60;1.00
3312;DHT22;1668;49.648;8.570;2023-02-26T14:05:52;4.50;1.00
3312;DHT22;1668;49.648;8.570;2023-02-26T14:08:50;4.50;1.00
3312;DHT22;1668;49.648;8.570;2023-02-26T14:11:43;4.40;1.00
3312;DHT22;1668;49.648;8.570;2023-02-26T14:14:17;4.30;1.00
3312;DHT22;1668;49.648;8.570;2023-02-26T14:16:49;4.30;1.00
3312;DHT22;1668;49.648;8.570;2023-02-26T14:19:24;4.20;1.00
3312;DHT22;1668;49.648;8.570;2023-02-26T14:21:53;4.20;1.00
3312;DHT22;1668;49.648;8.570;2023-02-26T14:24:28;4.10;1.00
3312;DHT22;1668;49.648;8.570;2023-02-26T14:27:21;4.10;1.00
3312;DHT22;1668;49.648;8.570;2023-02-26T14:29:59;4.00;1.00
3312;DHT22;1668;49.648;8.570;2023-02-26T14:32:29;4.00;1.00
3312;DHT22;1668;49.648;8.570;2023-02-26T14:35:02;4.00;1.00
3312;DHT22;1668;49.648;8.570;2023-02-26T14:37:32;4.00;1.00
3312;DHT22;1668;49.648;8.570;2023-02-26T14:40:05;4.00;1.00
3312;DHT22;1668;49.648;8.570;2023-02-26T14:42:37;4.10;1.00
3312;DHT22;1668;49.648;8.570;2023-02-26T14:45:16;4.10;1.00
3312;DHT22;1668;49.648;8.570;2023-02-26T14:47:45;4.10;1.00
3312;DHT22;1668;49.648;8.570;2023-02-26T14:50:15;4.10;1.00
3312;DHT22;1668;49.648;8.570;2023-02-26T14:52:54;4.10;1.00
3312;DHT22;1668;49.648;8.570;2023-02-26T14:56:00;4.00;1.00
3312;DHT22;1668;49.648;8.570;2023-02-26T14:58:39;4.10;1.00
3312;DHT22;1668;49.648;8.570;2023-02-26T15:01:19;4.00;1.00
3312;DHT22;1668;49.648;8.570;2023-02-26T15:04:08;4.00;1.00
3312;DHT22;1668;49.648;8.570;2023-02-26T15:06:49;4.00;1.00
3312;DHT22;1668;49.648;8.570;2023-02-26T15:09:21;4.00;1.00
3312;DHT22;1668;49.648;8.570;2023-02-26T15:11:58;4.20;1.00
3312;DHT22;1668;49.648;8.570;2023-02-26T15:14:53;4.20;1.00
3312;DHT22;1668;49.648;8.570;2023-02-26T15:17:50;4.40;1.00
3312;DHT22;1668;49.648;8.570;2023-02-26T15:20:26;4.70;1.00
3312;DHT22;1668;49.648;8.570;2023-02-26T15:23:07;4.80;1.00
3312;DHT22;1668;49.648;8.570;2023-02-26T15:25:40;4.70;1.00
3312;DHT22;1668;49.648;8.570;2023-02-26T15:28:13;4.70;1.00
3312;DHT22;1668;49.648;8.570;2023-02-26T15:30:42;4.70;1.00
3312;DHT22;1668;49.648;8.570;2023-02-26T15:33:12;4.40;1.00
3312;DHT22;1668;49.648;8.570;2023-02-26T15:35:42;4.40;1.00
3312;DHT22;1668;49.648;8.570;2023-02-26T15:38:11;4.30;1.00
3312;DHT22;1668;49.648;8.570;2023-02-26T15:40:38;4.30;1.00
3312;DHT22;1668;49.648;8.570;2023-02-26T15:43:06;4.20;1.00
3312;DHT22;1668;49.648;8.570;2023-02-26T15:45:37;4.20;1.00
3312;DHT22;1668;49.648;8.570;2023-02-26T15:48:06;4.10;1.00
3312;DHT22;1668;49.648;8.570;2023-02-26T15:50:36;4.20;1.00
3312;DHT22;1668;49.648;8.570;2023-02-26T15:53:05;4.20;1.00
3312;DHT22;1668;49.648;8.570;2023-02-26T15:55:37;4.20;1.00
3312;DHT22;1668;49.648;8.570;2023-02-26T15:58:06;4.20;1.00
3312;DHT22;1668;49.648;8.570;2023-02-26T16:00:35;4.10;1.00
3312;DHT22;1668;49.648;8.570;2023-02-26T16:03:02;4.00;1.00
3312;DHT22;1668;49.648;8.570;2023-02-26T16:05:29;4.00;1.00
3312;DHT22;1668;49.648;8.570;2023-02-26T16:07:56;4.00;1.00
3312;DHT22;1668;49.648;8.570;2023-02-26T16:10:33;3.90;1.00
3312;DHT22;1668;49.648;8.570;2023-02-26T16:13:05;3.90;1.00
3312;DHT22;1668;49.648;8.570;2023-02-26T16:15:35;3.90;1.00
3312;DHT22;1668;49.648;8.570;2023-02-26T16:18:05;3.80;1.00
3312;DHT22;1668;49.648;8.570;2023-02-26T16:20:37;3.80;1.00
3312;DHT22;1668;49.648;8.570;2023-02-26T16:23:06;3.80;1.00
3312;DHT22;1668;49.648;8.570;2023-02-26T16:25:38;3.80;1.00
3312;DHT22;1668;49.648;8.570;2023-02-26T16:28:13;3.70;1.00
3312;DHT22;1668;49.648;8.570;2023-02-26T16:30:43;3.60;1.00
3312;DHT22;1668;49.648;8.570;2023-02-26T16:33:12;3.60;1.00
3312;DHT22;1668;49.648;8.570;2023-02-26T16:35:43;3.50;1.00
3312;DHT22;1668;49.648;8.570;2023-02-26T16:38:16;3.50;1.00
3312;DHT22;1668;49.648;8.570;2023-02-26T16:40:46;3.40;1.00
3312;DHT22;1668;49.648;8.570;2023-02-26T16:43:47;3.40;1.00
3312;DHT22;1668;49.648;8.570;2023-02-26T16:46:18;3.40;1.00
3312;DHT22;1668;49.648;8.570;2023-02-26T16:48:49;3.30;1.00
3312;DHT22;1668;49.648;8.570;2023-02-26T16:51:20;3.30;1.00
3312;DHT22;1668;49.648;8.570;2023-02-26T16:53:51;3.20;1.00
3312;DHT22;1668;49.648;8.570;2023-02-26T16:56:21;3.20;1.00
3312;DHT22;1668;49.648;8.570;2023-02-26T16:58:57;3.20;1.00
3312;DHT22;1668;49.648;8.570;2023-02-26T17:01:32;3.20;1.00
3312;DHT22;1668;49.648;8.570;2023-02-26T17:04:01;3.20;1.00
3312;DHT22;1668;49.648;8.570;2023-02-26T17:06:29;3.20;1.00
3312;DHT22;1668;49.648;8.570;2023-02-26T17:08:58;3.10;1.00
3312;DHT22;1668;49.648;8.570;2023-02-26T17:11:27;3.10;1.00
3312;DHT22;1668;49.648;8.570;2023-02-26T17:14:09;3.10;1.00
3312;DHT22;1668;49.648;8.570;2023-02-26T17:16:38;3.10;1.00
3312;DHT22;1668;49.648;8.570;2023-02-26T17:19:05;3.10;1.00
3312;DHT22;1668;49.648;8.570;2023-02-26T17:21:36;3.00;1.00